Time;durP1;ratioP1;P1;durP2;ratioP2;P2;SDS_P1;SDS_P2;PMS_P1;PMS_P2;Temp;Humidity;BMP_temperature;BMP_pressure;BME280_temperature;BME280_humidity;BME280_pressure;Samples;Min_cycle;Max_cycle;Signal;HPM_P1;HPM_P2
2021/01/23 00:01:25;;;;;;;99.20;50.43;;;1.90;99.90;;;;;;4174994;28;20404;-54
2021/01/23 00:03:27;;;;;;;82.73;43.93;;;1.80;99.90;;;;;;4174184;28;20676;-56
2021/01/23 00:05:28;;;;;;;81.33;39.43;;;1.80;99.90;;;;;;4174173;28;20340;-63
2021/01/23 00:07:29;;;;;;;66.87;37.23;;;1.90;99.90;;;;;;4175276;28;20262;-57
2021/01/23 00:09:30;;;;;;;69.07;37.43;;;1.90;99.90;;;;;;4173935;28;20332;-59
2021/01/23 00:11:31;;;;;;;70.07;35.73;;;1.90;99.90;;;;;;4174812;28;20876;-55
2021/01/23 00:13:32;;;;;;;73.97;35.27;;;1.90;99.90;;;;;;4173864;28;20270;-56
2021/01/23 00:15:34;;;;;;;64.13;33.47;;;2.00;99.90;;;;;;4174608;28;20277;-55
2021/01/23 00:17:35;;;;;;;80.00;41.87;;;2.10;99.90;;;;;;4173744;28;20347;-55
2021/01/23 00:19:36;;;;;;;91.13;47.97;;;2.00;99.90;;;;;;4174533;28;20355;-55
2021/01/23 00:21:37;;;;;;;99.77;49.17;;;1.90;99.90;;;;;;4173468;28;20324;-60
2021/01/23 00:23:38;;;;;;;114.37;55.93;;;1.80;99.90;;;;;;4174354;28;20324;-57
2021/01/23 00:25:40;;;;;;;124.30;60.77;;;1.70;99.90;;;;;;4174196;28;20278;-60
2021/01/23 00:27:41;;;;;;;116.60;61.57;;;1.60;99.90;;;;;;4174113;28;20290;-55
2021/01/23 00:29:42;;;;;;;101.73;50.50;;;1.50;99.90;;;;;;4174471;28;20344;-60
2021/01/23 00:31:43;;;;;;;93.13;50.27;;;1.50;99.90;;;;;;4174316;28;20282;-57
2021/01/23 00:33:44;;;;;;;106.77;54.20;;;1.60;99.90;;;;;;4173874;28;20327;-56
2021/01/23 00:35:46;;;;;;;101.83;48.53;;;1.60;99.90;;;;;;4173800;28;20331;-57
2021/01/23 00:37:48;;;;;;;101.83;50.67;;;1.70;99.90;;;;;;4174195;28;20324;-57
2021/01/23 00:39:49;;;;;;;97.37;47.93;;;1.70;99.90;;;;;;4173314;28;20371;-57
2021/01/23 00:41:50;;;;;;;97.37;47.00;;;1.70;99.90;;;;;;4174168;28;20278;-55
2021/01/23 00:43:52;;;;;;;74.40;39.73;;;1.80;99.90;;;;;;4173399;28;20327;-58
2021/01/23 00:45:53;;;;;;;80.30;40.27;;;1.90;99.90;;;;;;4173975;28;20818;-57
2021/01/23 00:47:54;;;;;;;76.03;40.37;;;1.90;99.90;;;;;;4173605;28;20762;-60
2021/01/23 00:49:56;;;;;;;67.30;34.83;;;1.90;99.90;;;;;;4173762;28;20604;-58
2021/01/23 00:51:57;;;;;;;69.57;35.10;;;1.90;99.90;;;;;;4173401;28;20335;-58
2021/01/23 00:53:58;;;;;;;61.93;32.53;;;1.90;99.90;;;;;;4173759;28;20324;-54
2021/01/23 00:55:59;;;;;;;50.00;25.63;;;1.90;99.90;;;;;;4173811;28;20328;-54
2021/01/23 00:58:00;;;;;;;54.13;27.50;;;1.90;99.90;;;;;;4173535;28;20262;-56
2021/01/23 01:00:05;;;;;;;48.63;23.57;;;1.90;99.90;;;;;;4174053;28;20270;-58
2021/01/23 01:02:06;;;;;;;50.47;25.17;;;1.90;99.90;;;;;;4173516;28;20269;-58
2021/01/23 01:04:07;;;;;;;49.13;24.60;;;1.90;99.90;;;;;;4173713;28;20275;-56
2021/01/23 01:06:08;;;;;;;35.60;19.40;;;2.00;99.90;;;;;;4173221;28;20324;-57
2021/01/23 01:08:10;;;;;;;39.93;22.43;;;2.10;99.90;;;;;;4173883;28;20766;-52
2021/01/23 01:10:11;;;;;;;39.63;21.60;;;2.20;99.90;;;;;;4173499;28;20741;-54
2021/01/23 01:12:12;;;;;;;41.93;20.07;;;2.20;99.90;;;;;;4173968;28;20270;-55
2021/01/23 01:14:13;;;;;;;38.63;20.07;;;2.30;99.90;;;;;;4173114;28;20274;-61
2021/01/23 01:16:14;;;;;;;42.73;21.23;;;2.30;99.90;;;;;;4173439;28;20296;-59
2021/01/23 01:18:16;;;;;;;43.83;21.73;;;2.30;99.90;;;;;;4172801;28;20328;-59
2021/01/23 01:20:17;;;;;;;42.70;22.60;;;2.30;99.90;;;;;;4173928;28;20286;-60
2021/01/23 01:22:18;;;;;;;40.23;20.83;;;2.20;99.90;;;;;;4173311;28;20320;-62
2021/01/23 01:24:19;;;;;;;38.53;19.53;;;2.20;99.90;;;;;;4173512;28;20262;-58
2021/01/23 01:26:20;;;;;;;36.13;18.47;;;2.20;99.90;;;;;;4173135;28;20265;-64
2021/01/23 01:28:21;;;;;;;43.07;22.47;;;2.20;99.90;;;;;;4173632;28;20250;-60
2021/01/23 01:30:23;;;;;;;31.60;17.03;;;2.20;99.90;;;;;;4173798;28;20591;-62
2021/01/23 01:32:25;;;;;;;34.83;18.67;;;2.20;99.90;;;;;;4172340;28;20273;-56
2021/01/23 01:34:26;;;;;;;41.30;21.10;;;2.30;99.90;;;;;;4173010;28;20278;-61
2021/01/23 01:36:27;;;;;;;45.00;21.97;;;2.30;99.90;;;;;;4172270;28;20808;-58
2021/01/23 01:38:28;;;;;;;47.23;23.40;;;2.30;99.90;;;;;;4171567;28;20298;-61
2021/01/23 01:40:29;;;;;;;49.83;25.20;;;2.20;99.90;;;;;;4171643;28;20266;-59
2021/01/23 01:42:31;;;;;;;41.13;22.70;;;2.20;99.90;;;;;;4172598;28;20282;-62
2021/01/23 01:44:32;;;;;;;47.63;23.13;;;2.10;99.90;;;;;;4173203;28;20363;-64
2021/01/23 01:46:34;;;;;;;39.13;21.10;;;2.00;99.90;;;;;;4172610;28;20274;-62
2021/01/23 01:48:36;;;;;;;36.83;20.80;;;1.90;99.90;;;;;;4172307;28;20319;-63
2021/01/23 01:50:40;;;;;;;37.43;20.00;;;2.00;99.90;;;;;;4173423;28;20282;-60
2021/01/23 01:52:43;;;;;;;43.80;21.47;;;2.00;99.90;;;;;;4172383;28;20769;-57
2021/01/23 01:54:44;;;;;;;34.27;19.40;;;2.00;99.90;;;;;;4173068;28;20266;-58
2021/01/23 01:56:45;;;;;;;40.10;19.70;;;2.00;99.90;;;;;;4172014;28;20847;-56
2021/01/23 01:58:47;;;;;;;40.63;21.70;;;2.10;99.90;;;;;;4172685;28;20832;-56
2021/01/23 02:00:48;;;;;;;39.50;20.47;;;2.10;99.90;;;;;;4172371;28;20336;-57
2021/01/23 02:03:14;;;;;;;45.83;21.03;;;2.10;99.90;;;;;;4169900;28;20281;-58
2021/01/23 02:05:53;;;;;;;30.97;17.17;;;2.20;99.90;;;;;;4173096;28;20277;-59
2021/01/23 02:08:22;;;;;;;35.53;18.13;;;2.20;99.90;;;;;;4162876;28;20694;-56
2021/01/23 02:10:53;;;;;;;32.87;17.03;;;2.20;99.90;;;;;;4173025;28;20270;-58
2021/01/23 02:13:32;;;;;;;33.17;18.17;;;2.20;99.90;;;;;;4172729;28;20266;-52
2021/01/23 02:15:39;;;;;;;33.70;17.07;;;2.30;99.90;;;;;;4165521;28;20323;-57
2021/01/23 02:17:47;;;;;;;34.23;17.63;;;2.20;99.90;;;;;;4172491;28;20277;-55
2021/01/23 02:20:26;;;;;;;31.53;17.67;;;2.20;99.90;;;;;;4172836;28;20297;-64
2021/01/23 02:22:46;;;;;;;35.90;18.03;;;2.20;99.90;;;;;;4171930;28;20266;-54
2021/01/23 02:24:51;;;;;;;31.20;17.25;;;2.20;99.90;;;;;;4172902;28;20262;-56
2021/01/23 02:27:03;;;;;;;35.80;18.50;;;2.20;99.90;;;;;;4172170;28;20374;-56
2021/01/23 02:29:26;;;;;;;32.90;18.33;;;2.20;99.90;;;;;;4172332;28;20339;-55
2021/01/23 02:31:33;;;;;;;31.43;17.43;;;2.20;99.90;;;;;;4172364;28;20266;-59
2021/01/23 02:33:36;;;;;;;37.93;18.93;;;2.30;99.90;;;;;;4172761;28;20742;-55
2021/01/23 02:35:38;;;;;;;39.13;19.63;;;2.30;99.90;;;;;;4172649;28;20289;-57
2021/01/23 02:37:41;;;;;;;34.10;19.43;;;2.20;99.90;;;;;;4172683;28;20262;-55
2021/01/23 02:39:43;;;;;;;32.90;16.03;;;2.20;99.90;;;;;;4172479;28;20290;-55
2021/01/23 02:41:46;;;;;;;32.10;17.27;;;2.20;99.90;;;;;;4172432;28;20277;-56
2021/01/23 02:43:47;;;;;;;31.87;16.57;;;2.20;99.90;;;;;;4171957;28;20765;-54
2021/01/23 02:45:49;;;;;;;31.53;17.13;;;2.20;99.90;;;;;;4171783;28;20343;-60
2021/01/23 02:47:51;;;;;;;28.37;15.90;;;2.10;99.90;;;;;;4172349;28;20270;-55
2021/01/23 02:49:52;;;;;;;28.43;15.63;;;2.20;99.90;;;;;;4171995;28;20282;-56
2021/01/23 02:51:53;;;;;;;27.77;14.87;;;2.20;99.90;;;;;;4172081;28;20254;-58
2021/01/23 02:54:03;;;;;;;33.60;16.50;;;2.30;99.90;;;;;;4172000;28;20983;-58
2021/01/23 02:56:18;;;;;;;35.87;15.50;;;2.30;99.90;;;;;;4172597;28;20266;-59
2021/01/23 02:58:23;;;;;;;33.07;16.60;;;2.20;99.90;;;;;;4171799;28;20320;-57
2021/01/23 03:00:25;;;;;;;34.73;15.60;;;2.30;99.90;;;;;;4172335;28;20294;-58
2021/01/23 03:02:28;;;;;;;27.17;14.70;;;2.30;99.90;;;;;;4172263;28;20343;-55
2021/01/23 03:04:31;;;;;;;28.50;14.60;;;2.40;99.90;;;;;;4172224;28;20399;-54
2021/01/23 03:06:35;;;;;;;25.17;15.40;;;2.50;99.90;;;;;;4171837;28;20730;-55
2021/01/23 03:08:43;;;;;;;31.90;16.73;;;2.60;99.90;;;;;;4172227;28;20270;-58
2021/01/23 03:10:45;;;;;;;28.90;16.40;;;2.60;99.90;;;;;;4171805;28;20316;-57
2021/01/23 03:12:46;;;;;;;32.00;16.57;;;2.50;99.90;;;;;;4172775;28;20269;-53
2021/01/23 03:14:48;;;;;;;26.10;15.50;;;2.40;99.90;;;;;;4171865;28;20270;-57
2021/01/23 03:16:51;;;;;;;30.20;15.87;;;2.40;99.90;;;;;;4171135;28;20274;-58
2021/01/23 03:18:52;;;;;;;31.43;16.87;;;2.30;99.90;;;;;;4171023;28;20290;-59
2021/01/23 03:20:53;;;;;;;31.47;16.73;;;2.20;99.90;;;;;;4171913;28;20285;-57
2021/01/23 03:22:58;;;;;;;29.77;15.67;;;2.20;99.90;;;;;;4171593;28;20316;-58
2021/01/23 03:25:00;;;;;;;28.03;15.30;;;2.20;99.90;;;;;;4172099;28;20355;-60
2021/01/23 03:27:01;;;;;;;25.80;14.70;;;2.20;99.90;;;;;;4171921;28;20282;-57
2021/01/23 03:29:03;;;;;;;25.90;14.77;;;2.20;99.90;;;;;;4171682;28;20282;-61
2021/01/23 03:31:04;;;;;;;25.13;13.70;;;2.20;99.90;;;;;;4172628;28;20262;-60
2021/01/23 03:33:05;;;;;;;26.67;13.80;;;2.20;99.90;;;;;;4171760;28;20304;-56
2021/01/23 03:35:07;;;;;;;29.00;14.23;;;2.30;99.90;;;;;;4171760;28;20328;-62
2021/01/23 03:37:08;;;;;;;26.67;14.60;;;2.30;99.90;;;;;;4171199;28;20285;-60
2021/01/23 03:39:10;;;;;;;22.13;13.97;;;2.40;99.90;;;;;;4172315;28;20294;-59
2021/01/23 03:41:11;;;;;;;30.03;14.50;;;2.40;99.90;;;;;;4171132;28;20320;-63
2021/01/23 03:43:12;;;;;;;31.50;14.10;;;2.50;99.90;;;;;;4171921;28;20286;-61
2021/01/23 03:45:14;;;;;;;26.00;13.77;;;2.50;99.90;;;;;;4171257;28;20944;-58
2021/01/23 03:47:15;;;;;;;24.50;13.27;;;2.60;99.90;;;;;;4171547;28;20275;-61
2021/01/23 03:49:16;;;;;;;21.83;12.73;;;2.60;99.90;;;;;;4171427;28;20320;-60
2021/01/23 03:51:17;;;;;;;23.10;12.60;;;2.60;99.90;;;;;;4172159;28;20265;-59
2021/01/23 03:53:18;;;;;;;23.77;12.53;;;2.70;99.90;;;;;;4171813;28;20328;-54
2021/01/23 03:55:20;;;;;;;23.47;12.53;;;2.70;99.90;;;;;;4172226;28;20255;-58
2021/01/23 03:57:21;;;;;;;25.30;12.43;;;2.70;99.90;;;;;;4175131;28;20255;-58
2021/01/23 03:59:22;;;;;;;25.53;12.33;;;2.70;99.90;;;;;;4175163;28;20851;-56
2021/01/23 04:01:23;;;;;;;27.17;12.43;;;2.80;99.90;;;;;;4174884;28;20738;-64
2021/01/23 04:03:24;;;;;;;24.03;12.70;;;2.80;99.90;;;;;;4174351;28;20395;-59
2021/01/23 04:05:25;;;;;;;21.23;11.10;;;2.80;99.90;;;;;;4174415;28;20266;-60
2021/01/23 04:07:27;;;;;;;25.30;13.00;;;2.80;99.90;;;;;;4174465;28;20746;-66
2021/01/23 04:09:28;;;;;;;21.57;12.07;;;2.80;99.90;;;;;;4174740;28;20887;-55
2021/01/23 04:11:29;;;;;;;24.73;13.67;;;2.90;99.90;;;;;;4173939;28;20304;-58
2021/01/23 04:13:32;;;;;;;27.07;13.57;;;2.90;99.90;;;;;;4175080;28;20859;-61
2021/01/23 04:15:33;;;;;;;23.47;12.63;;;2.90;99.90;;;;;;4173092;28;20269;-55
2021/01/23 04:17:34;;;;;;;26.77;14.13;;;2.90;99.90;;;;;;4174915;28;20753;-59
2021/01/23 04:19:35;;;;;;;22.63;13.00;;;2.90;99.90;;;;;;4174320;28;20375;-60
2021/01/23 04:21:36;;;;;;;24.37;13.43;;;2.90;99.90;;;;;;4173651;28;20399;-60
2021/01/23 04:23:39;;;;;;;22.57;12.13;;;2.90;99.90;;;;;;4173956;28;20761;-59
2021/01/23 04:25:40;;;;;;;22.17;12.33;;;2.90;99.90;;;;;;4174450;28;20290;-66
2021/01/23 04:27:41;;;;;;;20.73;11.97;;;2.90;99.90;;;;;;4173565;28;20669;-62
2021/01/23 04:29:43;;;;;;;21.77;11.70;;;2.80;99.90;;;;;;4174098;28;20846;-57
2021/01/23 04:31:44;;;;;;;23.53;12.63;;;2.80;99.90;;;;;;4174411;28;20270;-57
2021/01/23 04:33:45;;;;;;;23.60;11.77;;;2.90;99.90;;;;;;4173905;28;21282;-65
2021/01/23 04:35:46;;;;;;;22.30;12.97;;;2.90;99.90;;;;;;4174084;28;20800;-58
2021/01/23 04:37:48;;;;;;;20.27;12.13;;;3.00;99.90;;;;;;4173944;28;20592;-58
2021/01/23 04:39:49;;;;;;;21.80;11.93;;;2.90;99.90;;;;;;4172872;28;20293;-63
2021/01/23 04:41:50;;;;;;;20.57;11.70;;;2.90;99.90;;;;;;4173129;28;20339;-57
2021/01/23 04:43:51;;;;;;;22.30;12.37;;;3.00;99.90;;;;;;4173990;28;20289;-59
2021/01/23 04:45:53;;;;;;;22.33;12.17;;;3.00;99.90;;;;;;4173237;28;20332;-59
2021/01/23 04:47:57;;;;;;;24.23;12.90;;;2.90;99.90;;;;;;4174287;28;20332;-56
2021/01/23 04:49:59;;;;;;;27.70;12.87;;;2.90;99.90;;;;;;4173369;28;20270;-57
2021/01/23 04:52:04;;;;;;;22.17;12.40;;;2.90;99.90;;;;;;4174087;28;20270;-63
2021/01/23 04:54:06;;;;;;;21.77;12.87;;;2.90;99.90;;;;;;4173671;28;21254;-62
2021/01/23 04:56:07;;;;;;;22.60;11.93;;;2.90;99.90;;;;;;4173985;28;20815;-59
2021/01/23 04:58:09;;;;;;;25.90;13.30;;;2.90;99.90;;;;;;4173863;28;20274;-57
2021/01/23 05:00:12;;;;;;;23.30;12.73;;;2.90;99.90;;;;;;4173499;28;20339;-58
2021/01/23 05:02:21;;;;;;;23.27;13.10;;;2.90;99.90;;;;;;4173691;28;20282;-61
2021/01/23 05:04:22;;;;;;;23.00;12.23;;;2.90;99.90;;;;;;4173996;28;20749;-57
2021/01/23 05:06:24;;;;;;;24.47;12.30;;;2.90;99.90;;;;;;4173755;28;21131;-60
2021/01/23 05:08:35;;;;;;;21.13;11.43;;;2.90;99.90;;;;;;4173275;28;20592;-58
2021/01/23 05:10:37;;;;;;;22.37;11.37;;;2.90;99.90;;;;;;4173656;28;20732;-56
2021/01/23 05:12:41;;;;;;;22.60;12.30;;;3.00;99.90;;;;;;4172991;28;20347;-57
2021/01/23 05:14:53;;;;;;;23.07;13.17;;;2.90;99.90;;;;;;4173333;28;20312;-62
2021/01/23 05:17:03;;;;;;;23.70;11.63;;;2.90;99.90;;;;;;4173350;28;20278;-58
2021/01/23 05:19:05;;;;;;;22.20;10.83;;;2.90;99.90;;;;;;4173050;28;20275;-58
2021/01/23 05:21:10;;;;;;;24.20;12.57;;;2.90;99.90;;;;;;4173087;28;20086;-59
2021/01/23 05:23:14;;;;;;;24.97;12.40;;;2.90;99.90;;;;;;4173011;28;20278;-58
2021/01/23 05:25:15;;;;;;;24.53;11.50;;;2.90;99.90;;;;;;4172835;28;20615;-61
2021/01/23 05:27:17;;;;;;;22.60;10.67;;;2.90;99.90;;;;;;4174070;28;20274;-59
2021/01/23 05:29:18;;;;;;;26.63;12.70;;;2.80;99.90;;;;;;4172418;28;20277;-61
2021/01/23 05:31:19;;;;;;;23.50;11.27;;;2.80;99.90;;;;;;4174147;28;20270;-60
2021/01/23 05:33:32;;;;;;;24.73;12.83;;;2.80;99.90;;;;;;4172848;28;20263;-57
2021/01/23 05:35:34;;;;;;;21.47;11.37;;;2.80;99.90;;;;;;4173471;28;20732;-57
2021/01/23 05:37:37;;;;;;;24.83;12.53;;;2.90;99.90;;;;;;4171856;28;20270;-60
2021/01/23 05:39:48;;;;;;;23.80;12.10;;;2.80;99.90;;;;;;4171634;28;20298;-62
2021/01/23 05:42:06;;;;;;;20.13;10.60;;;2.80;99.90;;;;;;4170868;28;20289;-61
2021/01/23 05:44:13;;;;;;;22.50;11.10;;;2.80;99.90;;;;;;4173138;28;20286;-59
2021/01/23 05:46:41;;;;;;;20.73;11.60;;;2.80;99.90;;;;;;4171901;28;20320;-59
2021/01/23 05:48:44;;;;;;;25.47;12.70;;;2.80;99.90;;;;;;4170717;28;21212;-54
2021/01/23 05:50:45;;;;;;;23.07;12.17;;;2.80;99.90;;;;;;4171810;28;20278;-60
2021/01/23 05:52:46;;;;;;;22.80;11.80;;;2.80;99.90;;;;;;4173165;28;20285;-58
2021/01/23 05:54:48;;;;;;;22.97;12.27;;;2.80;99.90;;;;;;4156548;28;20329;-59
2021/01/23 05:56:49;;;;;;;19.77;11.60;;;2.90;99.90;;;;;;4156227;28;20258;-57
2021/01/23 05:58:51;;;;;;;22.73;11.73;;;2.90;99.90;;;;;;4156038;28;20316;-56
2021/01/23 06:00:54;;;;;;;22.43;13.13;;;2.90;99.90;;;;;;4156345;28;20294;-57
2021/01/23 06:02:56;;;;;;;23.20;12.77;;;2.90;99.90;;;;;;4155988;28;20278;-61
2021/01/23 06:04:57;;;;;;;20.33;11.77;;;2.90;99.90;;;;;;4156637;28;20309;-58
2021/01/23 06:06:59;;;;;;;25.30;12.50;;;2.90;99.90;;;;;;4155874;28;20670;-54
2021/01/23 06:09:00;;;;;;;22.07;11.73;;;2.90;99.90;;;;;;4160620;28;21126;-62
2021/01/23 06:11:01;;;;;;;24.87;12.70;;;2.90;99.90;;;;;;4172714;28;20289;-57
2021/01/23 06:13:03;;;;;;;23.33;12.30;;;2.90;99.90;;;;;;4172091;28;20340;-60
2021/01/23 06:15:36;;;;;;;25.80;11.97;;;2.90;99.90;;;;;;4157962;28;20287;-52
2021/01/23 06:17:46;;;;;;;21.47;12.03;;;2.90;99.90;;;;;;4155718;28;20271;-61
2021/01/23 06:19:47;;;;;;;22.60;12.23;;;3.00;99.90;;;;;;4155425;28;20787;-56
2021/01/23 06:21:48;;;;;;;20.33;12.13;;;3.00;99.90;;;;;;4156106;28;20321;-53
2021/01/23 06:23:51;;;;;;;24.27;12.00;;;3.00;99.90;;;;;;4156186;28;20702;-61
2021/01/23 06:25:56;;;;;;;21.30;12.47;;;3.00;99.90;;;;;;4154710;28;20334;-63
2021/01/23 06:27:58;;;;;;;24.80;13.23;;;3.00;99.90;;;;;;4156293;28;20333;-60
2021/01/23 06:29:59;;;;;;;24.60;13.00;;;2.90;99.90;;;;;;4155046;28;20801;-61
2021/01/23 06:32:12;;;;;;;28.30;13.07;;;2.90;99.90;;;;;;4156876;28;20666;-54
2021/01/23 06:34:27;;;;;;;23.53;12.80;;;2.90;99.90;;;;;;4155820;28;20420;-62
2021/01/23 06:36:28;;;;;;;21.00;11.93;;;2.90;99.90;;;;;;4156163;28;20279;-60
2021/01/23 06:38:31;;;;;;;27.00;13.80;;;2.90;99.90;;;;;;4170386;28;20336;-55
2021/01/23 06:40:32;;;;;;;22.10;12.67;;;2.90;99.90;;;;;;4172167;28;20701;-56
2021/01/23 06:42:53;;;;;;;25.20;14.10;;;2.90;99.90;;;;;;4171532;28;20347;-64
2021/01/23 06:44:54;;;;;;;23.83;12.90;;;3.00;99.90;;;;;;4171939;28;20639;-56
2021/01/23 06:46:57;;;;;;;24.03;13.73;;;3.00;99.90;;;;;;4171589;28;20274;-59
2021/01/23 06:49:05;;;;;;;23.93;13.27;;;3.00;99.90;;;;;;4172233;28;20315;-64
2021/01/23 06:51:07;;;;;;;29.27;13.37;;;3.00;99.90;;;;;;4171867;28;20705;-64
2021/01/23 06:53:22;;;;;;;25.30;12.83;;;3.00;99.90;;;;;;4172246;28;20671;-58
2021/01/23 06:55:42;;;;;;;24.43;12.17;;;3.10;99.90;;;;;;4171748;28;20266;-60
2021/01/23 06:57:45;;;;;;;26.98;14.15;;;3.10;99.90;;;;;;4183525;28;20299;-58
2021/01/23 06:59:48;;;;;;;29.43;14.47;;;3.10;99.90;;;;;;4185730;28;20068;-60
2021/01/23 07:02:05;;;;;;;23.63;13.30;;;3.20;99.90;;;;;;4172695;28;20282;-60
2021/01/23 07:04:06;;;;;;;23.73;12.33;;;3.20;99.90;;;;;;4170753;28;20274;-60
2021/01/23 07:06:08;;;;;;;28.20;11.97;;;3.30;99.90;;;;;;4172102;28;20619;-56
2021/01/23 07:08:18;;;;;;;23.47;12.43;;;3.30;99.90;;;;;;4171546;28;20312;-60
2021/01/23 07:10:19;;;;;;;24.53;12.90;;;3.40;99.90;;;;;;4170610;28;20258;-59
2021/01/23 07:12:46;;;;;;;23.30;11.90;;;3.40;99.90;;;;;;4171502;28;20258;-53
2021/01/23 07:14:47;;;;;;;21.60;11.67;;;3.40;99.90;;;;;;4170144;28;20258;-52
2021/01/23 07:16:53;;;;;;;24.00;12.70;;;3.50;99.90;;;;;;4171882;28;20266;-54
2021/01/23 07:18:56;;;;;;;22.53;12.00;;;3.50;99.90;;;;;;4172253;28;20833;-56
2021/01/23 07:20:59;;;;;;;23.80;12.23;;;3.60;99.90;;;;;;4169697;28;20302;-59
2021/01/23 07:23:01;;;;;;;21.93;11.93;;;3.60;99.90;;;;;;4172034;28;20278;-58
2021/01/23 07:25:05;;;;;;;26.07;13.00;;;3.50;99.90;;;;;;4172184;28;20359;-60
2021/01/23 07:27:06;;;;;;;21.23;10.93;;;3.60;99.90;;;;;;4172086;28;20285;-56
2021/01/23 07:29:09;;;;;;;20.17;11.47;;;3.60;99.90;;;;;;4171051;28;20297;-56
2021/01/23 07:31:17;;;;;;;19.37;11.13;;;3.60;99.90;;;;;;4173563;28;20278;-62
2021/01/23 07:33:32;;;;;;;22.30;12.57;;;3.50;99.90;;;;;;4174892;28;20312;-62
2021/01/23 07:35:37;;;;;;;22.63;12.03;;;3.60;99.90;;;;;;4174944;28;20297;-61
2021/01/23 07:37:44;;;;;;;22.20;11.37;;;3.60;99.90;;;;;;4174768;28;20649;-58
2021/01/23 07:39:45;;;;;;;22.70;11.00;;;3.60;99.90;;;;;;4174393;28;20758;-57
2021/01/23 07:41:48;;;;;;;23.10;12.53;;;3.60;99.90;;;;;;4174578;28;20282;-60
2021/01/23 07:43:49;;;;;;;19.93;11.57;;;3.60;99.90;;;;;;4174518;28;20730;-60
2021/01/23 07:45:57;;;;;;;21.17;11.43;;;3.60;99.90;;;;;;4174545;28;20350;-58
2021/01/23 07:48:00;;;;;;;18.53;10.20;;;3.70;99.90;;;;;;4174200;28;20250;-60
2021/01/23 07:50:10;;;;;;;18.90;10.20;;;3.70;99.90;;;;;;4174432;28;20304;-62
2021/01/23 07:52:11;;;;;;;22.77;11.50;;;3.70;99.90;;;;;;4174000;28;20246;-60
2021/01/23 07:54:13;;;;;;;20.13;10.27;;;3.70;99.90;;;;;;4174292;28;20262;-60
2021/01/23 07:56:16;;;;;;;20.27;11.70;;;3.80;99.90;;;;;;4173781;28;20726;-60
2021/01/23 07:58:18;;;;;;;21.13;10.97;;;3.90;99.90;;;;;;4174607;28;20270;-64
2021/01/23 08:00:22;;;;;;;21.73;12.60;;;3.90;99.90;;;;;;4174192;28;20850;-61
2021/01/23 08:02:24;;;;;;;21.77;11.67;;;3.90;99.90;;;;;;4172980;28;20290;-60
2021/01/23 08:04:35;;;;;;;28.67;14.17;;;4.00;99.90;;;;;;4172695;28;20324;-58
2021/01/23 08:06:36;;;;;;;26.63;12.97;;;4.00;99.90;;;;;;4174308;28;20278;-59
2021/01/23 08:08:38;;;;;;;28.23;12.50;;;4.00;99.90;;;;;;4173708;28;20258;-64
2021/01/23 08:10:40;;;;;;;25.47;14.30;;;4.10;99.90;;;;;;4174010;28;20261;-61
2021/01/23 08:12:42;;;;;;;25.13;13.13;;;4.10;99.90;;;;;;4174083;28;20270;-58
2021/01/23 08:14:54;;;;;;;24.30;12.80;;;4.00;99.90;;;;;;4174105;28;20733;-63
2021/01/23 08:16:56;;;;;;;24.57;12.73;;;4.10;99.90;;;;;;4173903;28;20665;-56
2021/01/23 08:19:07;;;;;;;25.57;13.43;;;4.10;99.90;;;;;;4174038;28;20321;-57
2021/01/23 08:21:21;;;;;;;23.75;12.68;;;4.20;99.90;;;;;;4173432;28;20355;-53
2021/01/23 08:23:32;;;;;;;24.23;13.47;;;4.20;99.90;;;;;;4173780;28;20084;-60
2021/01/23 08:25:46;;;;;;;22.20;12.32;;;4.20;99.90;;;;;;4173774;28;20772;-58
2021/01/23 08:27:47;;;;;;;21.63;11.87;;;4.20;99.90;;;;;;4173411;28;20103;-61
2021/01/23 08:29:49;;;;;;;22.80;11.93;;;4.30;99.90;;;;;;4173646;28;20324;-61
2021/01/23 08:32:07;;;;;;;27.30;13.37;;;4.30;99.90;;;;;;4174243;28;20841;-61
2021/01/23 08:34:12;;;;;;;25.33;12.80;;;4.30;99.90;;;;;;4174165;28;21123;-63
2021/01/23 08:36:15;;;;;;;21.70;12.60;;;4.30;99.90;;;;;;4172838;28;20270;-61
2021/01/23 08:38:16;;;;;;;23.63;13.23;;;4.30;99.90;;;;;;4173619;28;20274;-61
2021/01/23 08:40:23;;;;;;;24.70;14.67;;;4.40;99.90;;;;;;4172692;28;20752;-59
2021/01/23 08:42:24;;;;;;;25.87;15.30;;;4.50;99.90;;;;;;4172598;28;20320;-61
2021/01/23 08:44:26;;;;;;;29.57;15.27;;;4.50;99.90;;;;;;4172893;28;20274;-61
2021/01/23 08:46:27;;;;;;;26.57;15.23;;;4.50;99.90;;;;;;4172992;28;21950;-62
2021/01/23 08:48:28;;;;;;;30.60;14.67;;;4.60;99.90;;;;;;4172612;28;21414;-61
2021/01/23 08:50:30;;;;;;;29.73;14.67;;;4.60;99.90;;;;;;4173622;28;20343;-60
2021/01/23 08:52:31;;;;;;;27.40;14.70;;;4.70;99.90;;;;;;4172689;28;20847;-61
2021/01/23 08:54:33;;;;;;;31.50;16.23;;;4.70;99.90;;;;;;4173184;28;20764;-60
2021/01/23 08:56:34;;;;;;;25.40;14.13;;;4.80;99.90;;;;;;4172217;28;20290;-60
2021/01/23 08:58:37;;;;;;;26.30;13.00;;;4.70;99.90;;;;;;4172156;28;20820;-59
2021/01/23 09:00:38;;;;;;;21.83;12.40;;;4.70;99.90;;;;;;4172369;28;20304;-44
2021/01/23 09:02:39;;;;;;;23.77;12.87;;;4.80;99.90;;;;;;4171601;28;20309;-42
2021/01/23 09:04:41;;;;;;;20.80;12.07;;;4.80;99.90;;;;;;4172957;28;20339;-43
2021/01/23 09:06:44;;;;;;;25.50;12.03;;;4.90;99.90;;;;;;4174320;28;20266;-44
2021/01/23 09:08:47;;;;;;;19.83;11.93;;;4.90;99.90;;;;;;4189690;28;20273;-44
2021/01/23 09:10:48;;;;;;;23.47;11.60;;;5.00;99.90;;;;;;4188996;28;20273;-46
2021/01/23 09:12:50;;;;;;;26.80;13.50;;;5.10;99.90;;;;;;4189234;28;20793;-47
2021/01/23 09:14:51;;;;;;;25.60;11.70;;;5.20;99.90;;;;;;4189070;28;20397;-46
2021/01/23 09:16:53;;;;;;;20.13;10.23;;;5.20;99.90;;;;;;4189516;28;20266;-46
2021/01/23 09:18:54;;;;;;;22.47;12.10;;;5.30;99.90;;;;;;4189030;28;20278;-47
2021/01/23 09:20:56;;;;;;;24.27;11.90;;;5.30;99.90;;;;;;4189630;28;21404;-48
2021/01/23 09:22:57;;;;;;;22.27;11.40;;;5.40;99.90;;;;;;4188705;28;20277;-47
2021/01/23 09:24:59;;;;;;;21.47;10.97;;;5.40;99.90;;;;;;4178231;28;20721;-49
2021/01/23 09:27:00;;;;;;;18.50;10.23;;;5.50;99.90;;;;;;4171568;28;20364;-46
2021/01/23 09:29:02;;;;;;;18.87;10.03;;;5.60;99.90;;;;;;4170930;28;20336;-44
2021/01/23 09:31:03;;;;;;;17.63;9.50;;;5.70;99.90;;;;;;4172209;28;20323;-49
2021/01/23 09:33:04;;;;;;;23.93;10.77;;;5.80;99.90;;;;;;4172812;28;20340;-54
2021/01/23 09:35:06;;;;;;;18.70;10.17;;;5.90;99.90;;;;;;4172253;28;20278;-50
2021/01/23 09:37:07;;;;;;;19.87;10.53;;;5.90;99.90;;;;;;4171933;28;20832;-49
2021/01/23 09:39:08;;;;;;;18.07;10.33;;;6.00;99.90;;;;;;4170462;28;20832;-46
2021/01/23 09:41:12;;;;;;;22.17;10.27;;;6.10;99.90;;;;;;4172034;28;20294;-48
2021/01/23 09:43:14;;;;;;;16.97;9.10;;;6.20;99.90;;;;;;4171794;28;20286;-48
2021/01/23 09:45:15;;;;;;;16.17;9.30;;;6.30;99.90;;;;;;4172132;28;20340;-45
2021/01/23 09:47:17;;;;;;;16.93;9.63;;;6.30;99.90;;;;;;4172135;28;21012;-53
2021/01/23 09:49:18;;;;;;;14.13;8.13;;;6.40;99.90;;;;;;4171531;28;20323;-55
2021/01/23 09:51:19;;;;;;;19.37;9.37;;;6.60;99.90;;;;;;4172273;28;20278;-46
2021/01/23 09:53:21;;;;;;;19.67;8.73;;;6.70;99.90;;;;;;4170671;28;20029;-47
2021/01/23 09:55:22;;;;;;;11.87;7.53;;;6.70;99.90;;;;;;4172662;28;20324;-51
2021/01/23 09:57:24;;;;;;;17.10;8.83;;;6.80;99.90;;;;;;4170936;28;20281;-53
2021/01/23 09:59:25;;;;;;;16.73;8.70;;;6.90;99.90;;;;;;4172532;28;20541;-51
2021/01/23 10:01:26;;;;;;;16.13;9.57;;;6.90;99.90;;;;;;4170604;28;20049;-47
2021/01/23 10:03:28;;;;;;;19.67;9.73;;;7.00;99.90;;;;;;4155514;28;20049;-52
2021/01/23 10:05:29;;;;;;;13.33;8.77;;;6.90;99.90;;;;;;4154578;28;20037;-47
2021/01/23 10:07:30;;;;;;;15.27;8.30;;;7.00;99.90;;;;;;4168729;28;20119;-56
2021/01/23 10:09:31;;;;;;;16.43;7.90;;;7.10;99.90;;;;;;4170883;28;20482;-47
2021/01/23 10:11:32;;;;;;;16.30;7.80;;;7.20;99.90;;;;;;4171221;28;20464;-41
2021/01/23 10:13:33;;;;;;;14.37;7.97;;;7.30;99.90;;;;;;4171336;28;20053;-46
2021/01/23 10:15:35;;;;;;;11.50;6.30;;;7.40;99.90;;;;;;4171816;28;20539;-46
2021/01/23 10:17:36;;;;;;;19.13;8.40;;;7.30;99.90;;;;;;4172037;28;20037;-53
2021/01/23 10:19:37;;;;;;;18.60;8.57;;;7.40;99.90;;;;;;4171506;28;20562;-46
2021/01/23 10:21:38;;;;;;;20.07;8.83;;;7.50;99.90;;;;;;4171965;28;20436;-43
2021/01/23 10:23:39;;;;;;;17.40;9.17;;;7.40;99.90;;;;;;4170952;28;20041;-45
2021/01/23 10:25:40;;;;;;;18.83;8.87;;;7.40;99.90;;;;;;4172089;28;20098;-43
2021/01/23 10:27:42;;;;;;;16.70;8.73;;;7.20;99.90;;;;;;4171238;28;20873;-43
2021/01/23 10:29:43;;;;;;;16.03;7.47;;;7.10;99.90;;;;;;4171702;28;20045;-49
2021/01/23 10:31:44;;;;;;;16.77;8.10;;;7.20;99.90;;;;;;4171777;28;20106;-48
2021/01/23 10:33:46;;;;;;;16.03;8.80;;;7.30;99.90;;;;;;4172228;28;20113;-47
2021/01/23 10:35:47;;;;;;;18.57;7.60;;;7.40;99.90;;;;;;4170063;28;20032;-49
2021/01/23 10:37:48;;;;;;;17.80;8.80;;;7.40;99.90;;;;;;4171598;28;20190;-47